createdAt,value
2023-02-03T00:04:45.485Z,12.31
2023-02-03T00:09:44.256Z,12.39
2023-02-03T00:14:38.237Z,12.41
2023-02-03T00:19:34.982Z,12.42
2023-02-03T00:24:27.352Z,12.41
2023-02-03T00:29:26.538Z,12.46
2023-02-03T00:34:23.533Z,12.49
2023-02-03T00:39:17.545Z,12.32
2023-02-03T00:44:11.039Z,12.31
2023-02-03T00:49:05.012Z,12.31
2023-02-03T00:53:56.791Z,12.44
2023-02-03T00:58:48.398Z,12.43
2023-02-03T01:03:40.431Z,12.40
2023-02-03T01:08:37.855Z,12.43
2023-02-03T01:13:30.640Z,12.50
2023-02-03T01:18:21.996Z,12.52
2023-02-03T01:23:13.933Z,12.46
2023-02-03T01:28:12.100Z,12.49
2023-02-03T01:33:05.164Z,12.57
2023-02-03T01:37:56.160Z,12.62
2023-02-03T01:42:46.888Z,12.67
2023-02-03T01:47:45.794Z,12.71
2023-02-03T01:52:37.593Z,12.62
2023-02-03T01:57:38.364Z,12.65
2023-02-03T02:02:32.132Z,12.66
2023-02-03T02:07:27.860Z,12.60
2023-02-03T02:12:24.176Z,12.64
2023-02-03T02:17:26.459Z,12.55
2023-02-03T02:22:24.423Z,12.61
2023-02-03T02:27:50.679Z,12.48
2023-02-03T02:33:04.927Z,12.49
2023-02-03T02:38:05.104Z,12.42
2023-02-03T02:43:08.618Z,12.48
2023-02-03T02:48:09.914Z,12.40
2023-02-03T02:53:04.905Z,12.39
2023-02-03T02:58:00.121Z,12.46
2023-02-03T03:02:55.109Z,12.51
2023-02-03T03:07:55.538Z,12.47
2023-02-03T03:12:53.248Z,12.44
2023-02-03T03:17:51.655Z,12.55
2023-02-03T03:22:52.122Z,12.54
2023-02-03T03:27:52.054Z,12.58
2023-02-03T03:32:44.866Z,12.54
2023-02-03T03:37:40.082Z,12.60
2023-02-03T03:42:39.719Z,12.55
2023-02-03T03:47:38.052Z,12.53
2023-02-03T03:52:36.011Z,12.63
2023-02-03T03:57:37.618Z,12.57
2023-02-03T04:02:31.126Z,12.56
2023-02-03T04:07:23.547Z,12.54
2023-02-03T04:12:25.059Z,12.58
2023-02-03T04:17:21.125Z,12.58
2023-02-03T04:22:12.135Z,12.56
2023-02-03T04:27:05.159Z,12.59
2023-02-03T04:31:57.003Z,12.58
2023-02-03T04:36:50.889Z,12.58
2023-02-03T04:41:43.273Z,12.47
2023-02-03T04:46:37.309Z,12.51
2023-02-03T04:51:32.644Z,12.46
2023-02-03T04:56:26.384Z,12.51
2023-02-03T05:01:18.001Z,12.43
2023-02-03T05:06:10.223Z,12.50
2023-02-03T05:11:02.416Z,12.44
2023-02-03T05:15:56.059Z,12.47
2023-02-03T05:20:46.552Z,12.45
2023-02-03T05:25:37.165Z,12.45
2023-02-03T05:30:29.802Z,12.44
2023-02-03T05:35:24.708Z,12.37
2023-02-03T05:40:31.535Z,12.40
2023-02-03T05:45:22.448Z,12.35
2023-02-03T05:50:14.650Z,12.39
2023-02-03T05:55:12.378Z,12.42
2023-02-03T06:00:03.758Z,12.39
2023-02-03T06:05:02.354Z,12.39
2023-02-03T06:09:55.148Z,12.35
2023-02-03T06:14:49.164Z,12.28
2023-02-03T06:19:41.543Z,12.33
2023-02-03T06:24:33.979Z,12.26
2023-02-03T06:29:29.225Z,12.30
2023-02-03T06:34:23.774Z,12.23
2023-02-03T06:39:18.025Z,12.24
2023-02-03T06:44:12.125Z,12.13
2023-02-03T06:49:04.619Z,12.16
2023-02-03T06:53:58.868Z,12.06
2023-02-03T06:58:49.308Z,12.12
2023-02-03T07:03:42.389Z,12.14
2023-02-03T07:08:39.086Z,12.21
2023-02-03T07:13:38.190Z,12.30
2023-02-03T07:18:48.259Z,12.25
2023-02-03T07:23:39.874Z,12.34
2023-02-03T07:28:36.038Z,12.31
2023-02-03T07:33:26.455Z,12.31
2023-02-03T07:38:16.541Z,12.35
2023-02-03T07:43:06.607Z,12.22
2023-02-03T07:48:00.280Z,12.23
2023-02-03T07:52:53.973Z,12.26
2023-02-03T07:57:58.520Z,12.25
2023-02-03T08:02:55.180Z,12.34
2023-02-03T08:07:50.428Z,12.41
2023-02-03T08:12:45.562Z,12.31
2023-02-03T08:17:37.310Z,12.30
2023-02-03T08:22:30.754Z,12.42
2023-02-03T08:27:25.321Z,12.22
2023-02-03T08:32:19.490Z,12.35
2023-02-03T08:37:12.623Z,12.43
2023-02-03T08:42:10.657Z,12.51
2023-02-03T08:47:08.071Z,12.48
2023-02-03T08:52:02.675Z,12.62
2023-02-03T08:56:56.111Z,12.67
2023-02-03T09:01:50.648Z,12.66
2023-02-03T09:06:45.234Z,12.70
2023-02-03T09:11:35.575Z,12.86
2023-02-03T09:16:28.020Z,12.92
2023-02-03T09:21:32.912Z,12.96
2023-02-03T09:26:28.483Z,13.01
2023-02-03T09:31:21.214Z,13.04
2023-02-03T09:36:14.040Z,12.97
2023-02-03T09:41:16.105Z,13.08
2023-02-03T09:46:20.730Z,13.27
2023-02-03T09:51:23.936Z,13.29
2023-02-03T09:56:27.536Z,13.38
2023-02-03T10:01:28.390Z,13.53
2023-02-03T10:06:32.573Z,13.72
2023-02-03T10:11:44.902Z,13.81
2023-02-03T10:16:59.626Z,13.91
2023-02-03T10:21:56.430Z,13.97
2023-02-03T10:26:50.614Z,14.02
2023-02-03T10:31:47.797Z,14.16
2023-02-03T10:36:52.069Z,14.23
2023-02-03T10:41:45.181Z,14.16
2023-02-03T10:46:39.937Z,14.31
2023-02-03T10:51:43.889Z,14.38
2023-02-03T10:56:44.564Z,14.42
2023-02-03T11:01:44.703Z,14.35
2023-02-03T11:06:56.607Z,14.43
2023-02-03T11:11:51.434Z,14.48
2023-02-03T11:16:49.655Z,14.48
2023-02-03T11:21:56.774Z,14.69
2023-02-03T11:26:51.927Z,14.72
2023-02-03T11:31:45.276Z,14.78
2023-02-03T11:36:48.761Z,14.86
2023-02-03T11:41:44.077Z,14.72
2023-02-03T11:46:41.492Z,14.96
2023-02-03T11:51:51.699Z,14.94
2023-02-03T11:57:02.026Z,14.99
2023-02-03T12:02:34.284Z,14.95
2023-02-03T12:07:53.927Z,14.97
2023-02-03T12:13:00.204Z,14.89
2023-02-03T12:18:21.920Z,14.83
2023-02-03T12:23:33.448Z,14.76
2023-02-03T12:28:53.337Z,14.65
2023-02-03T12:33:48.066Z,14.74
2023-02-03T12:38:44.556Z,14.80
2023-02-03T12:43:44.843Z,14.85
2023-02-03T12:48:44.437Z,14.85
2023-02-03T12:53:39.085Z,15.00
2023-02-03T12:58:37.220Z,15.10
2023-02-03T13:03:38.733Z,15.15
2023-02-03T13:08:35.966Z,15.14
2023-02-03T13:13:40.004Z,15.17
2023-02-03T13:18:39.193Z,15.11
2023-02-03T13:23:32.265Z,15.14
2023-02-03T13:28:41.909Z,14.95
2023-02-03T13:34:25.581Z,15.09
2023-02-03T13:39:38.004Z,14.99
2023-02-03T13:44:32.295Z,14.95
2023-02-03T13:49:37.896Z,14.96
2023-02-03T13:54:34.728Z,14.97
2023-02-03T13:59:33.569Z,14.92
2023-02-03T14:04:57.798Z,14.89
2023-02-03T14:10:18.064Z,14.85
2023-02-03T14:15:35.267Z,14.81
2023-02-03T14:20:56.772Z,14.83
2023-02-03T14:25:50.420Z,14.75
2023-02-03T14:31:11.278Z,14.76
2023-02-03T14:36:09.404Z,14.80
2023-02-03T14:41:08.646Z,14.80
2023-02-03T14:46:19.837Z,14.77
2023-02-03T14:51:23.920Z,14.77
2023-02-03T14:56:28.175Z,14.72
2023-02-03T15:01:54.268Z,14.65
2023-02-03T15:06:50.231Z,14.55
2023-02-03T15:11:48.119Z,14.43
2023-02-03T15:16:41.376Z,14.31
2023-02-03T15:21:32.869Z,14.43
2023-02-03T15:26:29.667Z,14.36
2023-02-03T15:31:29.300Z,14.35
2023-02-03T15:36:24.543Z,14.30
2023-02-03T15:41:25.285Z,14.36
2023-02-03T15:46:27.962Z,14.02
2023-02-03T15:51:25.131Z,14.08
2023-02-03T15:56:27.147Z,14.30
2023-02-03T16:01:28.911Z,14.37
2023-02-03T16:06:25.314Z,14.30
2023-02-03T16:11:33.922Z,14.16
2023-02-03T16:16:32.130Z,14.18
2023-02-03T16:21:35.608Z,14.09
2023-02-03T16:26:30.181Z,14.07
2023-02-03T16:31:36.415Z,13.97
2023-02-03T16:36:42.354Z,13.81
2023-02-03T16:41:50.898Z,13.88
2023-02-03T16:52:14.217Z,13.53
2023-02-03T16:57:07.157Z,13.47
2023-02-03T17:01:58.296Z,13.41
2023-02-03T17:06:51.761Z,13.41
2023-02-03T17:11:46.089Z,13.33
2023-02-03T17:16:38.692Z,13.40
2023-02-03T17:21:32.780Z,13.32
2023-02-03T17:26:25.647Z,13.27
2023-02-03T17:31:23.905Z,13.25
2023-02-03T17:36:16.802Z,13.28
2023-02-03T17:56:36.954Z,13.27
2023-02-03T18:01:32.309Z,13.25
2023-02-03T18:06:24.088Z,13.12
2023-02-03T18:11:19.915Z,13.21
2023-02-03T18:16:15.687Z,13.18
2023-02-03T18:21:16.502Z,13.11
2023-02-03T18:26:14.733Z,13.13
2023-02-03T18:31:11.125Z,13.11
2023-02-03T18:36:02.089Z,13.14
2023-02-03T18:40:55.134Z,13.06
2023-02-03T18:45:45.144Z,13.00
2023-02-03T18:50:36.785Z,13.29
2023-02-03T18:55:29.220Z,13.34
2023-02-03T19:00:24.306Z,13.31
2023-02-03T19:05:19.703Z,13.33
2023-02-03T19:10:12.334Z,13.32
2023-02-03T19:15:05.219Z,13.26
2023-02-03T19:19:59.608Z,13.27
2023-02-03T19:24:52.603Z,13.28
2023-02-03T19:29:43.819Z,13.23
2023-02-03T19:34:46.059Z,13.10
2023-02-03T19:39:41.505Z,13.17
2023-02-03T19:44:34.341Z,13.14
2023-02-03T19:49:29.020Z,12.95
2023-02-03T19:54:33.407Z,12.96
2023-02-03T19:59:27.482Z,12.99
2023-02-03T20:04:18.767Z,12.91
2023-02-03T20:09:16.197Z,12.88
2023-02-03T20:14:12.324Z,12.86
2023-02-03T20:19:09.843Z,12.75
2023-02-03T20:24:00.407Z,12.67
2023-02-03T20:28:53.060Z,12.58
2023-02-03T20:33:46.346Z,12.45
2023-02-03T20:38:44.218Z,12.41
2023-02-03T20:43:38.999Z,12.31
2023-02-03T20:48:30.571Z,12.25
2023-02-03T20:53:27.888Z,12.29
2023-02-03T20:58:28.324Z,12.22
2023-02-03T21:03:33.463Z,12.11
2023-02-03T21:08:24.001Z,12.14
2023-02-03T21:13:26.942Z,12.04
2023-02-03T21:18:36.732Z,12.13
2023-02-03T21:23:41.697Z,12.08
2023-02-03T21:28:36.019Z,11.96
2023-02-03T21:33:42.529Z,11.82
2023-02-03T21:38:35.726Z,11.81
2023-02-03T21:43:29.776Z,11.91
2023-02-03T21:48:33.510Z,11.92
2023-02-03T21:53:32.918Z,11.86
2023-02-03T21:58:29.180Z,11.90
2023-02-03T22:03:31.568Z,11.88
2023-02-03T22:08:24.552Z,11.93
2023-02-03T22:13:16.132Z,11.89
2023-02-03T22:18:07.962Z,11.93
2023-02-03T22:23:01.590Z,11.93
2023-02-03T22:27:53.545Z,11.89
2023-02-03T22:32:50.188Z,11.85
2023-02-03T22:37:44.421Z,11.96
2023-02-03T22:42:37.346Z,11.80
2023-02-03T22:47:28.142Z,11.87
2023-02-03T22:52:17.967Z,11.90
2023-02-03T22:57:09.053Z,11.89
2023-02-03T23:02:02.982Z,11.90
2023-02-03T23:06:53.786Z,11.99
2023-02-03T23:11:46.491Z,11.93
2023-02-03T23:16:38.631Z,11.91
2023-02-03T23:21:32.706Z,11.91
2023-02-03T23:26:26.874Z,11.89
2023-02-03T23:31:19.401Z,11.87
2023-02-03T23:36:11.419Z,11.81
2023-02-03T23:41:08.473Z,11.85
2023-02-03T23:45:59.386Z,11.79
2023-02-03T23:50:49.552Z,11.77
2023-02-03T23:55:39.463Z,11.67
